Time;durP1;ratioP1;P1;durP2;ratioP2;P2;SDS_P1;SDS_P2;PMS_P1;PMS_P2;Temp;Humidity;BMP_temperature;BMP_pressure;BME280_temperature;BME280_humidity;BME280_pressure;Samples;Min_cycle;Max_cycle;Signal;HPM_P1;HPM_P2
2022/04/18 00:02:21;;;;;;;10.48;7.10;;;;;;;12.08;42.36;101916.16;5054596;28;20509;-61
2022/04/18 00:04:47;;;;;;;11.50;6.88;;;;;;;12.04;42.08;101911.66;5056071;28;20378;-61
2022/04/18 00:07:14;;;;;;;10.18;6.53;;;;;;;11.99;41.59;101919.50;5055806;28;20032;-61
2022/04/18 00:09:39;;;;;;;9.98;6.13;;;;;;;11.94;41.12;101921.13;5055848;28;20635;-61
2022/04/18 00:12:05;;;;;;;11.40;6.00;;;;;;;11.94;41.12;101914.94;5055536;28;20107;-61
2022/04/18 00:14:31;;;;;;;9.05;5.68;;;;;;;11.92;41.10;101914.91;5055694;28;20501;-62
2022/04/18 00:16:57;;;;;;;10.43;5.70;;;;;;;11.93;41.04;101911.38;5055370;28;20382;-62
2022/04/18 00:19:23;;;;;;;8.95;5.88;;;;;;;11.93;40.71;101907.84;5056030;28;20028;-61
2022/04/18 00:21:49;;;;;;;11.00;5.65;;;;;;;11.91;40.99;101910.47;5055421;28;20025;-61
2022/04/18 00:24:17;;;;;;;9.95;6.35;;;;;;;11.85;41.95;101909.44;5055535;28;20017;-61
2022/04/18 00:26:43;;;;;;;9.32;5.80;;;;;;;11.81;41.18;101913.72;5055628;28;20075;-61
2022/04/18 00:29:08;;;;;;;7.47;5.65;;;;;;;11.77;41.05;101922.47;5055477;28;20028;-61
2022/04/18 00:31:34;;;;;;;8.75;6.00;;;;;;;11.70;42.17;101915.25;5055243;28;20037;-62
2022/04/18 00:33:59;;;;;;;8.10;5.53;;;;;;;11.64;43.01;101915.97;5055266;28;20052;-61
2022/04/18 00:36:24;;;;;;;10.50;5.93;;;;;;;11.57;42.34;101911.41;5055239;28;20496;-64
2022/04/18 00:38:50;;;;;;;8.32;5.50;;;;;;;11.61;43.04;101909.75;5055243;28;20021;-62
2022/04/18 00:41:16;;;;;;;6.55;5.30;;;;;;;11.58;41.73;101901.72;5055336;28;20033;-61
2022/04/18 00:43:42;;;;;;;9.05;5.50;;;;;;;11.54;42.49;101906.03;5055543;28;20017;-61
2022/04/18 00:46:08;;;;;;;12.30;5.55;;;;;;;11.35;42.78;101904.72;5055086;28;20108;-61
2022/04/18 00:48:34;;;;;;;10.55;5.20;;;;;;;11.24;42.17;101911.47;5055138;28;20111;-61
2022/04/18 00:51:00;;;;;;;8.68;4.95;;;;;;;11.14;42.03;101910.38;5054733;28;20045;-61
2022/04/18 00:53:26;;;;;;;8.68;5.55;;;;;;;11.09;43.18;101914.66;5054952;28;20033;-61
2022/04/18 00:55:52;;;;;;;9.50;4.75;;;;;;;11.08;42.19;101914.59;5055230;28;20379;-61
2022/04/18 00:58:17;;;;;;;7.38;5.35;;;;;;;11.08;42.49;101901.38;5054883;28;20021;-61
2022/04/18 01:00:43;;;;;;;8.73;4.90;;;;;;;11.16;41.53;101908.63;5055293;28;20497;-61
2022/04/18 01:03:08;;;;;;;6.90;4.63;;;;;;;11.16;41.41;101908.63;5054889;28;20470;-61
2022/04/18 01:05:34;;;;;;;6.68;4.55;;;;;;;11.11;41.09;101904.09;5054702;28;20492;-62
2022/04/18 01:08:00;;;;;;;7.28;4.80;;;;;;;11.11;41.05;101901.44;5054973;28;20024;-61
2022/04/18 01:10:25;;;;;;;9.75;4.95;;;;;;;11.06;41.61;101906.63;5054734;28;20076;-61
2022/04/18 01:12:51;;;;;;;7.60;4.70;;;;;;;11.10;41.13;101900.56;5054714;28;20044;-61
2022/04/18 01:15:16;;;;;;;7.97;5.30;;;;;;;11.09;42.26;101893.50;5054535;28;20024;-61
2022/04/18 01:17:42;;;;;;;7.10;4.63;;;;;;;11.16;40.83;101895.41;5054519;28;20099;-61
2022/04/18 01:20:08;;;;;;;7.45;4.90;;;;;;;11.21;41.62;101898.16;5054297;28;20053;-61
2022/04/18 01:22:35;;;;;;;8.43;4.72;;;;;;;11.22;41.40;101900.88;5054538;28;20025;-61
2022/04/18 01:30:31;;;;;;;8.95;5.20;;;;;;;10.86;43.26;101894.63;5054300;28;20136;-61
2022/04/18 01:32:57;;;;;;;8.27;4.97;;;;;;;10.72;44.42;101899.56;5054141;28;20144;-61
2022/04/18 01:35:22;;;;;;;9.20;5.43;;;;;;;10.60;45.13;101901.84;5054262;28;20036;-61
2022/04/18 01:37:47;;;;;;;7.97;5.40;;;;;;;10.40;45.80;101901.28;5054134;28;20033;-61
2022/04/18 01:40:13;;;;;;;9.35;5.50;;;;;;;10.25;46.21;101901.75;5054154;28;20415;-61
2022/04/18 01:42:39;;;;;;;7.70;5.10;;;;;;;10.12;46.01;101900.47;5054105;28;20495;-61
2022/04/18 01:45:05;;;;;;;7.47;5.00;;;;;;;10.03;44.98;101890.53;5054189;28;20136;-61
2022/04/18 01:47:31;;;;;;;8.52;4.97;;;;;;;10.03;45.94;101900.22;5053852;28;20112;-61
2022/04/18 01:49:56;;;;;;;7.18;4.70;;;;;;;10.02;44.33;101894.03;5052560;28;20111;-61
2022/04/18 01:52:24;;;;;;;6.80;4.93;;;;;;;10.00;43.88;101892.19;5053646;28;20048;-61
2022/04/18 01:54:50;;;;;;;10.23;5.30;;;;;;;9.94;44.10;101894.66;5053802;28;20025;-61
2022/04/18 01:57:15;;;;;;;7.80;5.28;;;;;;;9.91;46.24;101884.88;5053767;28;20470;-61
2022/04/18 01:59:42;;;;;;;8.65;5.20;;;;;;;9.95;46.24;101885.88;5053319;28;20025;-61
2022/04/18 02:02:09;;;;;;;11.57;5.30;;;;;;;10.02;44.50;101883.47;5053474;28;20021;-61
2022/04/18 02:04:34;;;;;;;8.40;5.00;;;;;;;10.10;44.32;101883.66;5053869;28;20025;-61
2022/04/18 02:07:00;;;;;;;8.48;5.20;;;;;;;10.13;45.07;101880.25;5053704;28;20386;-61
2022/04/18 02:09:25;;;;;;;10.10;4.53;;;;;;;10.27;43.56;101873.63;5053595;28;20478;-61
2022/04/18 02:11:50;;;;;;;9.23;4.30;;;;;;;10.32;43.10;101877.31;5053545;28;20029;-61
2022/04/18 02:14:16;;;;;;;7.00;4.40;;;;;;;10.28;43.06;101876.34;5053487;28;20075;-61
2022/04/18 02:16:41;;;;;;;7.93;4.78;;;;;;;10.17;43.80;101869.81;5053513;28;20427;-61
2022/04/18 02:19:07;;;;;;;9.60;5.57;;;;;;;10.17;43.66;101875.09;5053349;28;20028;-61
2022/04/18 02:21:32;;;;;;;9.25;4.60;;;;;;;10.21;44.43;101874.31;5053337;28;20037;-61
2022/04/18 02:23:57;;;;;;;6.43;4.50;;;;;;;10.13;43.07;101877.59;5053296;28;20021;-61
2022/04/18 02:26:23;;;;;;;6.60;4.35;;;;;;;10.03;43.13;101872.06;5053492;28;20033;-61
2022/04/18 02:28:48;;;;;;;10.35;4.53;;;;;;;10.01;43.27;101873.72;5053508;28;20025;-61
2022/04/18 02:31:14;;;;;;;7.07;4.10;;;;;;;10.02;42.79;101875.53;5053136;28;20017;-61
2022/04/18 02:33:39;;;;;;;9.98;4.10;;;;;;;10.11;42.88;101876.66;5053188;28;20063;-61
2022/04/18 02:36:04;;;;;;;7.00;3.78;;;;;;;10.22;42.23;101873.47;5053229;28;20107;-61
2022/04/18 02:38:30;;;;;;;7.05;3.72;;;;;;;10.31;42.57;101874.63;5053104;28;20494;-61
2022/04/18 02:40:55;;;;;;;6.95;3.90;;;;;;;10.34;42.05;101865.03;5053226;28;20482;-61
2022/04/18 02:43:21;;;;;;;8.38;3.80;;;;;;;10.37;42.19;101867.78;5053043;28;20032;-61
2022/04/18 02:45:46;;;;;;;9.25;4.00;;;;;;;10.33;42.15;101863.25;5052925;28;20052;-61
2022/04/18 02:48:12;;;;;;;7.25;4.00;;;;;;;10.31;42.07;101869.34;5052917;28;20127;-61
2022/04/18 02:50:37;;;;;;;6.82;4.22;;;;;;;10.18;43.42;101857.50;5052635;28;20029;-61
2022/04/18 02:53:05;;;;;;;7.22;4.15;;;;;;;10.14;42.89;101856.50;5052973;28;20105;-61
2022/04/18 02:55:30;;;;;;;7.57;3.90;;;;;;;10.13;42.94;101851.19;5053158;28;20024;-61
2022/04/18 02:57:56;;;;;;;6.30;3.90;;;;;;;10.12;43.26;101846.75;5052905;28;20027;-61
2022/04/18 03:00:21;;;;;;;11.15;4.28;;;;;;;10.09;43.26;101838.75;5052727;28;20087;-61
2022/04/18 03:02:46;;;;;;;7.43;4.18;;;;;;;10.04;43.78;101842.16;5052741;28;20029;-61
2022/04/18 03:05:12;;;;;;;7.00;4.22;;;;;;;9.92;44.13;101841.78;5052765;28;20059;-61
2022/04/18 03:07:39;;;;;;;7.03;4.18;;;;;;;9.96;44.29;101843.66;5052686;28;20112;-61
2022/04/18 03:10:06;;;;;;;6.78;3.75;;;;;;;9.96;44.09;101842.78;5052922;28;20036;-61
2022/04/18 03:12:35;;;;;;;7.25;3.90;;;;;;;9.95;44.43;101839.25;5053916;28;20028;-61
2022/04/18 03:15:00;;;;;;;6.65;3.72;;;;;;;9.91;44.42;101832.09;5056657;28;20061;-61
2022/04/18 03:17:26;;;;;;;8.18;4.00;;;;;;;9.78;44.94;101828.19;5056652;28;20107;-60
2022/04/18 03:19:52;;;;;;;6.75;3.97;;;;;;;9.83;44.57;101830.97;5055866;28;20470;-61
2022/04/18 03:22:19;;;;;;;7.30;3.92;;;;;;;9.80;44.12;101830.84;5056870;28;20081;-60
2022/04/18 03:24:45;;;;;;;6.97;3.78;;;;;;;9.77;44.29;101829.03;5056693;28;20025;-61
2022/04/18 03:27:11;;;;;;;7.32;3.85;;;;;;;9.73;44.78;101829.81;5056576;28;20112;-61
2022/04/18 03:29:37;;;;;;;7.50;3.47;;;;;;;9.71;44.42;101827.94;5056524;28;20041;-60
2022/04/18 03:32:15;;;;;;;7.38;3.60;;;;;;;9.68;44.59;101833.16;5056390;28;20120;-60
2022/04/18 03:34:41;;;;;;;6.22;3.78;;;;;;;9.57;45.02;101832.81;5056380;28;20029;-61
2022/04/18 03:39:50;;;;;;;6.28;3.65;;;;;;;9.51;44.67;101832.63;5056259;28;20090;-61
2022/04/18 03:42:28;;;;;;;5.60;3.50;;;;;;;9.48;44.91;101829.91;5056376;28;20111;-60
2022/04/18 03:44:55;;;;;;;6.38;3.63;;;;;;;9.39;44.39;101841.06;5056151;28;20029;-61
2022/04/18 03:47:20;;;;;;;7.18;3.75;;;;;;;9.33;45.34;101843.47;5056341;28;20021;-61
2022/04/18 03:49:46;;;;;;;7.25;3.83;;;;;;;9.05;45.49;101814.47;5056460;28;20496;-61
2022/04/18 03:52:11;;;;;;;6.65;3.65;;;;;;;9.01;44.72;101846.00;5055994;28;20045;-60
2022/04/18 03:54:40;;;;;;;9.73;3.70;;;;;;;8.94;45.93;101843.09;5056016;28;20039;-61
2022/04/18 03:57:06;;;;;;;5.80;3.58;;;;;;;8.82;45.46;101840.94;5056105;28;20040;-61
2022/04/18 03:59:32;;;;;;;8.40;4.45;;;;;;;8.85;45.50;101837.50;5056040;28;20104;-60
2022/04/18 04:01:58;;;;;;;5.78;3.88;;;;;;;8.92;46.04;101837.78;5055886;28;20112;-61
2022/04/18 04:04:24;;;;;;;5.25;3.55;;;;;;;8.98;44.75;101840.59;5055870;28;20029;-61
2022/04/18 04:06:50;;;;;;;7.28;3.72;;;;;;;9.01;46.43;101831.91;5056086;28;20078;-61
2022/04/18 04:09:15;;;;;;;8.57;3.75;;;;;;;8.99;46.39;101828.31;5055765;28;20036;-61
2022/04/18 04:11:41;;;;;;;6.32;3.47;;;;;;;9.09;45.23;101832.16;5055644;28;20036;-61
2022/04/18 04:14:06;;;;;;;7.47;3.70;;;;;;;9.14;45.57;101836.75;5055617;28;20021;-60
2022/04/18 04:16:31;;;;;;;5.85;3.85;;;;;;;9.10;45.73;101831.31;5055042;28;20065;-60
2022/04/18 04:18:57;;;;;;;5.75;3.95;;;;;;;9.00;45.82;101825.75;5055474;28;20112;-60
2022/04/18 04:21:22;;;;;;;6.18;3.60;;;;;;;8.89;46.25;101828.88;5054420;28;20041;-60
2022/04/18 04:23:47;;;;;;;7.15;3.60;;;;;;;8.72;47.38;101830.94;5054481;28;20021;-61
2022/04/18 04:26:13;;;;;;;6.53;3.70;;;;;;;8.62;48.46;101839.38;5055845;28;20075;-60
2022/04/18 04:28:38;;;;;;;7.90;3.80;;;;;;;8.55;48.26;101827.72;5055455;28;20474;-61
2022/04/18 04:31:04;;;;;;;5.90;3.72;;;;;;;8.61;47.68;101827.03;5055392;28;20017;-60
2022/04/18 04:33:32;;;;;;;7.38;3.95;;;;;;;8.59;47.97;101826.97;5054729;28;20029;-61
2022/04/18 04:35:58;;;;;;;7.43;3.70;;;;;;;8.52;47.83;101827.59;5054600;28;20025;-61
2022/04/18 04:38:27;;;;;;;5.63;3.75;;;;;;;8.52;47.72;101831.16;5054837;28;20025;-60
2022/04/18 04:40:53;;;;;;;8.70;4.18;;;;;;;8.50;48.28;101826.66;5054984;28;20057;-61
2022/04/18 04:43:27;;;;;;;6.05;3.80;;;;;;;8.45;48.42;101820.34;5054711;28;20036;-61
2022/04/18 04:45:53;;;;;;;8.00;3.92;;;;;;;8.45;48.90;101830.88;5054362;28;20117;-60
2022/04/18 04:48:18;;;;;;;5.47;3.70;;;;;;;8.40;48.83;101833.34;5054489;28;20017;-61
2022/04/18 04:50:44;;;;;;;7.75;3.78;;;;;;;8.43;48.93;101837.81;5054166;28;20013;-61
2022/04/18 04:53:09;;;;;;;8.20;4.05;;;;;;;8.45;48.85;101836.16;5054494;28;20025;-61
2022/04/18 04:55:37;;;;;;;6.22;4.10;;;;;;;8.37;48.75;101843.78;5054460;28;20421;-61
2022/04/18 04:58:03;;;;;;;7.65;3.95;;;;;;;8.35;49.29;101841.88;5054385;28;20063;-60
2022/04/18 05:00:28;;;;;;;8.80;5.00;;;;;;;8.31;49.19;101853.16;5054325;28;20056;-61
2022/04/18 05:02:57;;;;;;;11.02;6.13;;;;;;;8.25;49.38;101845.94;5054320;28;20059;-61
2022/04/18 05:05:22;;;;;;;7.22;4.80;;;;;;;8.29;49.47;101843.47;5054255;28;20021;-61
2022/04/18 05:07:48;;;;;;;7.22;4.32;;;;;;;8.33;49.17;101844.47;5054126;28;20032;-61
2022/04/18 05:10:15;;;;;;;7.30;4.20;;;;;;;8.35;49.75;101849.78;5054693;28;20056;-61
2022/04/18 05:12:41;;;;;;;7.75;3.90;;;;;;;8.43;49.38;101843.97;5054100;28;20120;-61
2022/04/18 05:15:07;;;;;;;7.30;3.90;;;;;;;8.56;48.50;101840.03;5054032;28;20028;-61
2022/04/18 05:17:33;;;;;;;8.95;4.00;;;;;;;8.67;48.88;101848.34;5053918;28;20029;-61
2022/04/18 05:19:58;;;;;;;11.27;4.35;;;;;;;8.83;48.83;101847.13;5053952;28;20032;-61
2022/04/18 05:22:24;;;;;;;6.05;4.03;;;;;;;8.78;49.25;101853.13;5053945;28;20029;-61
2022/04/18 05:24:50;;;;;;;8.00;4.07;;;;;;;8.94;47.99;101851.88;5053884;28;20032;-61
2022/04/18 05:27:16;;;;;;;5.65;4.18;;;;;;;9.08;48.11;101848.81;5053827;28;20068;-61
2022/04/18 05:29:42;;;;;;;11.38;4.45;;;;;;;9.22;47.42;101858.97;5053707;28;20108;-61
2022/04/18 05:32:08;;;;;;;9.77;4.40;;;;;;;9.40;46.90;101847.22;5053576;28;20068;-61
2022/04/18 05:34:33;;;;;;;8.25;4.85;;;;;;;9.53;45.92;101842.38;5052989;28;20044;-61
2022/04/18 05:36:59;;;;;;;7.28;4.30;;;;;;;9.64;46.09;101849.75;5053417;28;20122;-61
2022/04/18 05:39:24;;;;;;;8.23;4.18;;;;;;;9.73;45.81;101850.03;5053436;28;20021;-61
2022/04/18 05:41:49;;;;;;;6.70;4.03;;;;;;;9.86;45.19;101857.47;5053546;28;20029;-61
2022/04/18 05:44:15;;;;;;;7.07;4.28;;;;;;;9.79;45.18;101851.09;5053411;28;20575;-61
2022/04/18 05:46:40;;;;;;;8.25;4.25;;;;;;;9.83;45.45;101853.81;5053420;28;20477;-60
2022/04/18 05:49:06;;;;;;;7.47;4.30;;;;;;;9.89;44.82;101856.63;5053501;28;20032;-61
2022/04/18 05:51:32;;;;;;;5.82;4.13;;;;;;;9.97;45.36;101856.00;5053001;28;20053;-61
2022/04/18 05:54:00;;;;;;;7.72;4.10;;;;;;;10.05;45.18;101845.69;5053292;28;20025;-61
2022/04/18 05:56:25;;;;;;;7.50;4.25;;;;;;;10.16;45.25;101846.88;5053332;28;20240;-61
2022/04/18 05:58:51;;;;;;;7.97;4.40;;;;;;;10.30;44.92;101851.69;5053273;28;20053;-61
2022/04/18 06:01:16;;;;;;;9.07;4.05;;;;;;;10.40;44.49;101841.41;5053012;28;20059;-61
2022/04/18 06:03:41;;;;;;;7.00;4.07;;;;;;;10.53;44.56;101851.50;5053210;28;20096;-61
2022/04/18 06:06:07;;;;;;;7.03;4.15;;;;;;;10.57;45.21;101854.19;5053277;28;20035;-61
2022/04/18 06:08:32;;;;;;;8.43;4.18;;;;;;;10.64;45.17;101857.03;5053166;28;20463;-61
2022/04/18 06:10:58;;;;;;;7.35;3.90;;;;;;;10.71;44.21;101860.75;5052906;28;20108;-61
2022/04/18 06:13:24;;;;;;;5.95;4.38;;;;;;;10.84;43.74;101859.34;5053045;28;20029;-61
2022/04/18 06:15:52;;;;;;;6.80;4.20;;;;;;;10.99;43.18;101863.25;5052893;28;20536;-61
2022/04/18 06:18:19;;;;;;;7.40;4.00;;;;;;;10.96;43.09;101862.25;5052696;28;20025;-61
2022/04/18 06:20:44;;;;;;;6.25;3.83;;;;;;;11.04;42.67;101863.34;5052873;28;20436;-61
2022/04/18 06:23:10;;;;;;;8.38;4.03;;;;;;;11.16;43.37;101868.06;5052690;28;20029;-61
2022/04/18 06:25:35;;;;;;;6.75;4.30;;;;;;;11.23;43.45;101855.03;5053066;28;20447;-61
2022/04/18 06:28:00;;;;;;;7.45;4.00;;;;;;;11.36;42.60;101858.88;5052561;28;20025;-61
2022/04/18 06:30:26;;;;;;;6.78;4.15;;;;;;;11.50;43.12;101859.19;5052657;28;20110;-61
2022/04/18 06:32:51;;;;;;;12.15;4.20;;;;;;;11.67;41.83;101856.91;5052472;28;20474;-61
2022/04/18 06:35:16;;;;;;;5.97;3.75;;;;;;;11.72;41.17;101855.25;5052641;28;20032;-61
2022/04/18 06:37:42;;;;;;;6.75;4.00;;;;;;;11.96;41.62;101865.53;5052628;28;20093;-61
2022/04/18 06:40:08;;;;;;;5.90;3.72;;;;;;;12.23;41.73;101858.16;5052894;28;20029;-61
2022/04/18 06:42:39;;;;;;;5.47;3.92;;;;;;;12.41;40.71;101854.97;5052850;28;20098;-61
2022/04/18 06:45:05;;;;;;;10.52;3.95;;;;;;;12.65;40.54;101858.97;5052644;28;20021;-63
2022/04/18 06:47:30;;;;;;;8.43;3.83;;;;;;;12.80;40.08;101851.28;5052440;28;20035;-62
2022/04/18 06:49:56;;;;;;;5.22;3.75;;;;;;;12.92;39.92;101858.56;5052527;28;20553;-61
2022/04/18 06:52:23;;;;;;;7.50;3.40;;;;;;;13.04;39.57;101859.66;5052347;28;20048;-61
2022/04/18 06:54:49;;;;;;;6.07;3.80;;;;;;;13.30;38.90;101858.34;5052505;28;20025;-61
2022/04/18 06:57:16;;;;;;;7.82;3.60;;;;;;;13.42;39.92;101850.56;5052849;28;20021;-62
2022/04/18 06:59:43;;;;;;;6.45;3.78;;;;;;;13.56;38.74;101856.97;5052560;28;20021;-62
2022/04/18 07:02:09;;;;;;;6.32;3.33;;;;;;;13.69;37.90;101850.97;5052388;28;20025;-62
2022/04/18 07:04:34;;;;;;;5.88;3.83;;;;;;;13.83;36.82;101856.47;5052367;28;20036;-62
2022/04/18 07:07:00;;;;;;;8.48;4.00;;;;;;;13.92;36.93;101843.31;5052676;28;20017;-62
2022/04/18 07:09:25;;;;;;;5.55;3.65;;;;;;;13.86;37.04;101845.00;5052480;28;20021;-62
2022/04/18 07:11:51;;;;;;;5.95;3.80;;;;;;;14.04;36.81;101850.53;5052430;28;20394;-62
2022/04/18 07:14:17;;;;;;;6.38;3.40;;;;;;;14.16;37.45;101847.16;5052457;28;20025;-62
2022/04/18 07:16:43;;;;;;;6.40;3.60;;;;;;;14.29;37.27;101849.97;5051051;28;20029;-62
2022/04/18 07:19:09;;;;;;;9.05;3.60;;;;;;;14.33;36.12;101852.66;5052362;28;20484;-62
2022/04/18 07:21:35;;;;;;;7.60;3.78;;;;;;;14.60;35.92;101852.09;5052393;28;20029;-62
2022/04/18 07:24:00;;;;;;;6.35;3.67;;;;;;;14.92;35.22;101853.31;5051148;28;20021;-62
2022/04/18 07:26:25;;;;;;;7.75;3.47;;;;;;;15.21;34.77;101852.66;5052259;28;20108;-62
2022/04/18 07:28:51;;;;;;;7.63;3.75;;;;;;;15.20;34.62;101850.84;5052556;28;20025;-62
2022/04/18 07:31:17;;;;;;;7.28;3.70;;;;;;;15.20;34.72;101849.13;5055533;28;20127;-62
2022/04/18 07:33:42;;;;;;;5.40;3.70;;;;;;;15.46;34.97;101840.41;5056085;28;20020;-62
2022/04/18 07:36:09;;;;;;;5.43;3.42;;;;;;;15.81;33.52;101839.78;5053437;28;20036;-62
2022/04/18 07:38:49;;;;;;;4.97;3.35;;;;;;;15.88;32.68;101838.91;5052636;28;20028;-62
2022/04/18 07:41:21;;;;;;;6.80;3.40;;;;;;;15.99;32.63;101842.50;5052343;28;20059;-62
2022/04/18 07:43:48;;;;;;;5.40;3.55;;;;;;;16.08;33.35;101839.00;5052160;28;20037;-62
2022/04/18 07:46:17;;;;;;;5.93;3.45;;;;;;;16.20;32.39;101836.38;5052166;28;20025;-62
2022/04/18 07:48:48;;;;;;;5.00;3.15;;;;;;;16.31;32.35;101834.63;5050476;28;20021;-62
2022/04/18 07:53:59;;;;;;;4.30;3.03;;;;;;;16.35;31.06;101839.06;5051893;28;20121;-63
2022/04/18 07:56:25;;;;;;;5.57;3.28;;;;;;;16.45;29.48;101830.22;5051962;28;20394;-63
2022/04/18 07:58:51;;;;;;;6.22;3.13;;;;;;;16.61;30.48;101828.47;5053123;28;20017;-63
2022/04/18 08:01:18;;;;;;;4.97;3.42;;;;;;;16.77;30.24;101821.41;5055552;28;20095;-63
2022/04/18 08:03:43;;;;;;;9.95;3.35;;;;;;;16.95;31.37;101824.06;5055748;28;20103;-63
2022/04/18 08:06:09;;;;;;;6.45;3.58;;;;;;;17.03;29.66;101824.09;5055642;28;20112;-63
2022/04/18 08:08:34;;;;;;;7.65;3.30;;;;;;;17.23;29.22;101813.41;5055397;28;20039;-63
2022/04/18 08:11:00;;;;;;;4.93;3.38;;;;;;;17.35;28.46;101821.41;5055325;28;20033;-63
2022/04/18 08:13:26;;;;;;;8.85;3.53;;;;;;;17.56;28.12;101823.13;5055481;28;20025;-63
2022/04/18 08:15:52;;;;;;;7.13;3.30;;;;;;;17.83;27.70;101815.97;5054902;28;20029;-62
2022/04/18 08:18:18;;;;;;;5.75;3.10;;;;;;;18.04;26.81;101823.91;5055345;28;20358;-62
2022/04/18 08:20:43;;;;;;;7.03;3.13;;;;;;;18.26;28.04;101822.00;5055246;28;20017;-63
2022/04/18 08:23:09;;;;;;;6.93;3.20;;;;;;;18.42;27.70;101821.03;5055543;28;20025;-63
2022/04/18 08:25:35;;;;;;;5.43;3.10;;;;;;;18.49;27.42;101816.50;5055313;28;20032;-63
2022/04/18 08:28:04;;;;;;;19.08;3.60;;;;;;;18.68;27.22;101828.88;5055150;28;20021;-63
2022/04/18 08:30:29;;;;;;;3.88;3.17;;;;;;;18.61;26.20;101831.59;5055024;28;20017;-62
2022/04/18 08:32:55;;;;;;;5.50;3.10;;;;;;;18.75;25.78;101829.75;5053641;28;20478;-62
2022/04/18 11:29:31;;;;;;;5.13;3.65;;;;;;;24.64;17.73;101712.91;5072662;28;20060;-61
2022/04/18 11:31:56;;;;;;;8.25;3.67;;;;;;;24.58;17.63;101714.91;5052182;28;20036;-59
2022/04/18 11:34:26;;;;;;;4.63;3.60;;;;;;;24.70;17.22;101699.16;5054080;28;20028;-60
2022/04/18 11:36:55;;;;;;;5.55;3.80;;;;;;;24.53;17.72;101703.38;5055817;28;20041;-60
2022/04/18 11:39:20;;;;;;;4.85;3.63;;;;;;;24.61;17.52;101701.31;5055476;28;20021;-60
2022/04/18 11:41:46;;;;;;;5.22;3.50;;;;;;;24.44;17.96;101699.19;5055636;28;20186;-61
2022/04/18 11:44:12;;;;;;;5.45;3.88;;;;;;;24.04;18.51;101696.88;5055898;28;20025;-60
2022/04/18 11:46:38;;;;;;;6.10;3.67;;;;;;;23.99;19.21;101695.19;5055644;28;20117;-60
2022/04/18 11:49:03;;;;;;;12.35;3.60;;;;;;;24.00;18.67;101701.47;5055577;28;20056;-60
2022/04/18 11:51:50;;;;;;;6.32;4.00;;;;;;;24.23;19.21;101701.59;5055416;28;20458;-60
2022/04/18 11:54:15;;;;;;;8.35;3.72;;;;;;;24.57;18.35;101688.84;5055279;28;20037;-61
2022/04/18 11:56:41;;;;;;;8.05;3.67;;;;;;;25.01;18.19;101699.91;5055478;28;20044;-60
2022/04/18 11:59:06;;;;;;;5.47;3.85;;;;;;;24.99;17.55;101698.16;5055268;28;20036;-61
2022/04/18 12:07:00;;;;;;;6.78;3.70;;;;;;;24.97;18.16;101694.63;5055203;28;20048;-61
2022/04/18 12:09:26;;;;;;;7.00;3.85;;;;;;;24.96;19.23;101683.84;5055448;28;20025;-60
2022/04/18 12:11:55;;;;;;;5.32;3.80;;;;;;;25.08;17.40;101693.34;5055081;28;20435;-61
2022/04/18 12:14:20;;;;;;;5.65;3.90;;;;;;;24.30;16.97;101675.28;5055045;28;20040;-61
2022/04/18 12:16:46;;;;;;;5.22;3.95;;;;;;;24.51;16.85;101681.84;5054942;28;20017;-60
2022/04/18 12:19:15;;;;;;;6.05;4.03;;;;;;;24.78;17.23;101677.28;5055219;28;20029;-60
2022/04/18 12:21:42;;;;;;;5.05;3.40;;;;;;;24.92;15.98;101679.50;5054888;28;20108;-61
2022/04/18 12:24:08;;;;;;;4.93;3.30;;;;;;;24.85;16.18;101676.13;5054940;28;20033;-61
2022/04/18 12:26:34;;;;;;;4.03;3.10;;;;;;;24.90;15.88;101679.56;5054945;28;20064;-60
2022/04/18 12:29:10;;;;;;;6.20;3.30;;;;;;;24.75;16.38;101669.28;5055452;28;20084;-61
2022/04/18 12:31:40;;;;;;;5.13;3.20;;;;;;;25.04;15.42;101668.22;5055634;28;20036;-60
2022/04/18 12:34:05;;;;;;;4.60;3.15;;;;;;;25.35;16.03;101659.00;5054938;28;20025;-61
2022/04/18 12:36:35;;;;;;;4.72;3.17;;;;;;;25.26;16.43;101665.66;5054993;28;20490;-60
2022/04/18 12:39:02;;;;;;;5.28;3.00;;;;;;;24.52;15.76;101653.88;5054761;28;20029;-61
2022/04/18 12:41:29;;;;;;;6.28;3.22;;;;;;;24.60;15.60;101649.09;5054770;28;20474;-60
2022/04/18 12:43:54;;;;;;;5.88;2.90;;;;;;;24.34;15.88;101651.78;5054151;28;20056;-60
2022/04/18 12:46:30;;;;;;;4.85;2.88;;;;;;;24.63;16.57;101646.28;5054564;28;20427;-61
2022/04/18 12:48:56;;;;;;;6.45;2.90;;;;;;;24.36;15.38;101642.66;5036305;28;20478;-61
2022/04/18 12:51:33;;;;;;;4.05;2.60;;;;;;;24.12;15.87;101643.50;5054420;28;20025;-60
2022/04/18 12:53:59;;;;;;;4.20;3.10;;;;;;;24.34;15.58;101641.84;5054304;28;20164;-60
2022/04/18 12:56:27;;;;;;;5.30;2.75;;;;;;;24.79;15.81;101629.50;5054294;28;20107;-60
2022/04/18 12:58:55;;;;;;;4.85;2.80;;;;;;;24.96;15.27;101643.28;5054293;28;20029;-61
2022/04/18 13:01:25;;;;;;;6.32;2.95;;;;;;;24.91;15.21;101629.06;5054130;28;20397;-61
2022/04/18 13:03:52;;;;;;;4.75;3.00;;;;;;;24.80;14.75;101621.34;5054302;28;20029;-60
2022/04/18 13:06:31;;;;;;;7.35;2.95;;;;;;;25.06;15.04;101620.41;5054427;28;20040;-61
2022/04/18 13:09:04;;;;;;;5.10;2.67;;;;;;;25.06;15.23;101614.09;5054305;28;20067;-61
2022/04/18 13:11:41;;;;;;;5.80;3.10;;;;;;;25.26;15.44;101616.06;5054106;28;20079;-61
2022/04/18 13:14:07;;;;;;;4.53;3.05;;;;;;;25.48;14.61;101608.88;5054049;28;20028;-61
2022/04/18 13:16:33;;;;;;;4.40;2.92;;;;;;;25.78;14.65;101606.84;5053685;28;20037;-60
2022/04/18 13:19:18;;;;;;;6.72;2.90;;;;;;;26.07;15.61;101610.16;5054116;28;20025;-60
2022/04/18 13:21:44;;;;;;;5.80;3.60;;;;;;;25.70;15.31;101611.66;5053287;28;20157;-60
2022/04/18 13:24:10;;;;;;;4.75;3.50;;;;;;;25.59;15.75;101590.41;5053892;28;20057;-60
2022/04/18 13:26:36;;;;;;;4.47;3.15;;;;;;;25.31;15.78;101604.16;5053612;28;20466;-61
2022/04/18 13:29:03;;;;;;;5.45;3.00;;;;;;;25.72;16.19;101596.22;5053545;28;20028;-61
2022/04/18 13:31:29;;;;;;;5.00;3.30;;;;;;;25.43;16.07;101594.66;5053873;28;20052;-60
2022/04/18 13:33:54;;;;;;;4.88;3.10;;;;;;;25.55;16.79;101590.59;5053519;28;20458;-61
2022/04/18 13:36:30;;;;;;;5.80;3.30;;;;;;;25.69;16.58;101585.50;5053739;28;20029;-61
2022/04/18 13:38:58;;;;;;;4.28;3.13;;;;;;;25.97;16.76;101593.41;5053473;28;20056;-63
2022/04/18 13:41:24;;;;;;;7.22;3.60;;;;;;;25.89;15.71;101585.59;5053345;28;20050;-61
2022/04/18 13:43:51;;;;;;;4.95;3.60;;;;;;;25.98;15.26;101587.03;5053460;28;20018;-61
2022/04/18 13:46:18;;;;;;;5.57;3.60;;;;;;;25.95;16.05;101579.03;5053427;28;20088;-61
2022/04/18 13:48:47;;;;;;;4.15;3.22;;;;;;;26.05;15.07;101569.59;5053331;28;20079;-61
2022/04/18 13:51:14;;;;;;;5.22;3.50;;;;;;;25.91;15.92;101569.28;5053231;28;20028;-61
2022/04/18 13:53:52;;;;;;;5.15;3.63;;;;;;;26.04;15.29;101562.44;5053101;28;20025;-61
2022/04/18 13:56:19;;;;;;;5.15;3.10;;;;;;;26.08;15.21;101561.34;5052605;28;20052;-61
2022/04/18 13:58:45;;;;;;;4.22;2.95;;;;;;;25.91;14.61;101561.16;5053122;28;20033;-61
2022/04/18 14:01:11;;;;;;;4.60;3.00;;;;;;;25.63;15.01;101561.41;5052979;28;20021;-61
2022/04/18 14:03:37;;;;;;;4.07;3.00;;;;;;;25.44;14.69;101562.16;5053326;28;20127;-61
2022/04/18 14:06:04;;;;;;;5.20;3.17;;;;;;;25.27;15.85;101563.72;5034938;28;20535;-61
2022/04/18 14:08:33;;;;;;;4.53;3.15;;;;;;;25.54;16.18;101559.06;5052855;28;20028;-61
2022/04/18 14:11:04;;;;;;;4.97;3.20;;;;;;;25.46;16.27;101557.53;5052923;28;20079;-60
2022/04/18 14:13:30;;;;;;;5.47;2.80;;;;;;;25.31;16.22;101563.56;5052844;28;20025;-60
2022/04/18 14:21:25;;;;;;;6.70;3.10;;;;;;;25.30;15.29;101537.44;5053002;28;20099;-61
2022/04/18 14:23:50;;;;;;;4.80;2.80;;;;;;;25.32;15.83;101540.09;5052970;28;20024;-61
2022/04/18 14:26:16;;;;;;;5.32;3.00;;;;;;;25.04;16.54;101535.72;5052774;28;20029;-61
2022/04/18 14:28:41;;;;;;;5.15;3.22;;;;;;;24.77;15.75;101531.38;5052840;28;20025;-61
2022/04/18 14:31:08;;;;;;;7.68;3.00;;;;;;;24.32;16.31;101524.84;5052271;28;20088;-61
2022/04/18 14:33:34;;;;;;;6.10;2.90;;;;;;;24.13;16.50;101524.63;5052598;28;20112;-61
2022/04/18 14:35:59;;;;;;;4.07;2.90;;;;;;;23.85;16.46;101516.56;5052530;28;20112;-61
2022/04/18 14:38:24;;;;;;;4.28;3.10;;;;;;;23.99;16.80;101522.41;5052738;28;20112;-61
2022/04/18 14:40:50;;;;;;;6.95;3.47;;;;;;;24.31;16.40;101522.19;5052528;28;20458;-61